Time;durP1;ratioP1;P1;durP2;ratioP2;P2;SDS_P1;SDS_P2;PMS_P1;PMS_P2;Temp;Humidity;BMP_temperature;BMP_pressure;BME280_temperature;BME280_humidity;BME280_pressure;Samples;Min_cycle;Max_cycle;Signal;HPM_P1;HPM_P2
2022/07/19 00:00:51;;;;;;;3.27;2.27;;;19.80;98.00;;;;;;5073468;28;20457;-65
2022/07/19 00:03:20;;;;;;;4.37;2.90;;;19.70;98.00;;;;;;5073981;28;20850;-65
2022/07/19 00:05:47;;;;;;;3.70;2.20;;;19.70;98.00;;;;;;5074073;28;20543;-65
2022/07/19 00:08:17;;;;;;;2.50;2.00;;;19.70;98.00;;;;;;5074149;28;20939;-65
2022/07/19 00:10:44;;;;;;;3.43;1.93;;;19.60;98.00;;;;;;5073464;28;20465;-66
2022/07/19 00:13:11;;;;;;;2.93;1.90;;;19.70;98.00;;;;;;5073344;28;20958;-65
2022/07/19 00:15:39;;;;;;;3.47;2.63;;;19.80;98.00;;;;;;5072899;28;20485;-65
2022/07/19 00:18:07;;;;;;;2.87;2.20;;;19.70;98.00;;;;;;5073222;28;20522;-65
2022/07/19 00:20:35;;;;;;;3.43;2.37;;;19.60;98.00;;;;;;5072846;28;20460;-65
2022/07/19 00:23:03;;;;;;;2.70;2.00;;;19.50;98.00;;;;;;5073022;28;20465;-65
2022/07/19 00:25:30;;;;;;;2.40;1.70;;;19.50;98.00;;;;;;5073284;28;20464;-65
2022/07/19 00:27:57;;;;;;;2.97;2.40;;;19.40;98.00;;;;;;5073422;28;20449;-65
2022/07/19 00:30:24;;;;;;;3.53;2.40;;;19.30;98.00;;;;;;5072743;28;20503;-65
2022/07/19 00:32:51;;;;;;;2.73;2.10;;;19.30;98.00;;;;;;5073341;28;20463;-65
2022/07/19 00:35:20;;;;;;;3.00;2.00;;;19.20;98.00;;;;;;5073093;28;20481;-65
2022/07/19 00:37:47;;;;;;;3.30;2.13;;;19.20;98.00;;;;;;5073190;28;20514;-65
2022/07/19 00:40:14;;;;;;;2.93;1.97;;;19.30;98.00;;;;;;5073129;28;20958;-65
2022/07/19 00:42:43;;;;;;;4.67;2.40;;;19.30;98.00;;;;;;5055317;28;20463;-65
2022/07/19 00:45:11;;;;;;;4.53;2.60;;;19.10;98.00;;;;;;5055205;28;20457;-65
2022/07/19 00:47:38;;;;;;;2.87;2.37;;;19.00;98.00;;;;;;5073013;28;20465;-65
2022/07/19 00:50:06;;;;;;;3.17;2.20;;;19.00;98.00;;;;;;5072940;28;20460;-65
2022/07/19 00:52:36;;;;;;;3.40;2.40;;;18.90;98.00;;;;;;5072930;28;20858;-65
2022/07/19 00:55:04;;;;;;;4.77;2.50;;;18.90;98.00;;;;;;5072276;28;20485;-65
2022/07/19 00:57:33;;;;;;;3.40;2.10;;;19.10;98.00;;;;;;5072567;28;20468;-66
2022/07/19 01:00:00;;;;;;;2.93;2.30;;;19.00;98.00;;;;;;5073227;28;20464;-65
2022/07/19 01:02:30;;;;;;;3.03;2.13;;;18.90;98.00;;;;;;5072973;28;20502;-65
2022/07/19 01:04:59;;;;;;;4.97;2.73;;;18.70;98.00;;;;;;5072970;28;20531;-65
2022/07/19 01:07:26;;;;;;;2.83;2.27;;;18.80;98.00;;;;;;5072755;28;20453;-65
2022/07/19 01:09:54;;;;;;;6.30;2.70;;;18.80;98.00;;;;;;5072605;28;20457;-65
2022/07/19 01:12:22;;;;;;;3.27;2.23;;;18.70;98.00;;;;;;5072800;28;20532;-65
2022/07/19 01:14:49;;;;;;;3.33;2.30;;;18.60;98.00;;;;;;5072722;28;21083;-65
2022/07/19 01:17:17;;;;;;;2.77;2.10;;;18.50;98.00;;;;;;5072431;28;20461;-65
2022/07/19 01:19:44;;;;;;;3.10;1.90;;;18.50;98.00;;;;;;5054771;28;20465;-65
2022/07/19 01:22:12;;;;;;;4.10;2.10;;;18.50;98.00;;;;;;5072428;28;20966;-65
2022/07/19 01:24:40;;;;;;;2.40;1.80;;;18.50;98.00;;;;;;5054141;28;20460;-65
2022/07/19 01:27:07;;;;;;;2.50;1.97;;;18.50;98.00;;;;;;5072525;28;20526;-65
2022/07/19 01:29:36;;;;;;;3.60;2.37;;;18.40;98.00;;;;;;5072058;28;20453;-65
2022/07/19 01:32:04;;;;;;;2.40;1.90;;;18.30;98.00;;;;;;5072033;28;20461;-65
2022/07/19 01:34:31;;;;;;;3.60;2.40;;;18.30;98.00;;;;;;5072091;28;20461;-65
2022/07/19 01:36:58;;;;;;;3.50;2.37;;;18.30;98.00;;;;;;5071582;28;20476;-65
2022/07/19 01:39:28;;;;;;;3.77;2.30;;;18.40;98.00;;;;;;5072001;28;20467;-65
2022/07/19 01:41:55;;;;;;;3.93;2.40;;;18.40;98.00;;;;;;5071999;28;20453;-65
2022/07/19 01:44:24;;;;;;;3.20;2.00;;;18.40;98.00;;;;;;5071920;28;20463;-65
2022/07/19 01:46:52;;;;;;;3.40;2.60;;;18.40;98.00;;;;;;5072390;28;20463;-65
2022/07/19 01:49:19;;;;;;;3.63;2.40;;;18.30;98.00;;;;;;5071975;28;20457;-65
2022/07/19 01:51:46;;;;;;;2.63;1.80;;;18.40;98.00;;;;;;5072022;28;20456;-65
2022/07/19 01:54:13;;;;;;;3.50;1.90;;;18.20;98.00;;;;;;5054165;28;20467;-65
2022/07/19 01:56:44;;;;;;;3.53;2.20;;;18.00;98.00;;;;;;5071967;28;20672;-65
2022/07/19 01:59:11;;;;;;;3.80;2.20;;;17.90;98.00;;;;;;5072130;28;20510;-65
2022/07/19 02:01:39;;;;;;;1.77;1.70;;;17.80;98.00;;;;;;5054293;28;20460;-65
2022/07/19 02:04:06;;;;;;;6.33;2.80;;;17.80;98.00;;;;;;5054365;28;20809;-65
2022/07/19 02:06:33;;;;;;;3.87;2.37;;;17.70;98.00;;;;;;5072005;28;21027;-65
2022/07/19 02:09:00;;;;;;;3.30;2.30;;;17.60;98.00;;;;;;5072044;28;20469;-65
2022/07/19 02:11:36;;;;;;;3.50;2.43;;;17.60;98.00;;;;;;5071633;28;20461;-65
2022/07/19 02:14:05;;;;;;;3.43;2.00;;;17.50;98.00;;;;;;5072634;28;20448;-65
2022/07/19 02:16:32;;;;;;;3.03;2.17;;;17.70;98.00;;;;;;5071904;28;20481;-65
2022/07/19 02:18:59;;;;;;;3.67;2.37;;;17.70;98.00;;;;;;5071994;28;20441;-65
2022/07/19 02:21:26;;;;;;;4.23;2.30;;;17.50;98.00;;;;;;5053945;28;20796;-65
2022/07/19 02:23:55;;;;;;;4.70;2.63;;;17.50;98.00;;;;;;5071817;28;20456;-65
2022/07/19 02:26:22;;;;;;;3.27;2.27;;;17.50;98.00;;;;;;5071382;28;20461;-65
2022/07/19 02:28:49;;;;;;;3.07;2.00;;;17.40;98.00;;;;;;5071526;28;20445;-65
2022/07/19 02:31:18;;;;;;;3.30;2.10;;;17.40;98.00;;;;;;5071298;28;20510;-65
2022/07/19 02:33:45;;;;;;;2.60;2.20;;;17.30;98.00;;;;;;5071653;28;20468;-65
2022/07/19 02:36:12;;;;;;;5.93;2.67;;;17.30;98.00;;;;;;5071342;28;20473;-65
2022/07/19 02:38:40;;;;;;;3.70;2.07;;;17.30;98.00;;;;;;5070957;28;20459;-65
2022/07/19 02:41:07;;;;;;;3.83;2.10;;;17.20;98.00;;;;;;5071491;28;20786;-65
2022/07/19 02:43:34;;;;;;;5.03;3.00;;;17.30;98.00;;;;;;5053336;28;21005;-65
2022/07/19 02:46:01;;;;;;;3.70;2.40;;;17.30;98.00;;;;;;5071453;28;20901;-65
2022/07/19 02:48:30;;;;;;;3.40;2.23;;;17.30;98.00;;;;;;5071350;28;20993;-65
2022/07/19 02:50:57;;;;;;;3.00;2.07;;;17.40;98.00;;;;;;5071433;28;20456;-65
2022/07/19 02:53:24;;;;;;;2.80;2.10;;;17.50;98.00;;;;;;5071347;28;20453;-65
2022/07/19 02:55:52;;;;;;;2.60;2.20;;;17.30;98.00;;;;;;5071265;28;20491;-65
2022/07/19 02:58:19;;;;;;;4.43;2.73;;;17.30;98.00;;;;;;5071195;28;20464;-65
2022/07/19 03:00:47;;;;;;;1.80;1.80;;;17.40;98.00;;;;;;5053127;28;20935;-65
2022/07/19 03:06:01;;;;;;;4.43;2.30;;;17.30;98.00;;;;;;5071534;28;20486;-65
2022/07/19 03:08:28;;;;;;;2.67;2.03;;;17.20;98.00;;;;;;5071429;28;20514;-65
2022/07/19 03:10:55;;;;;;;2.90;2.00;;;17.10;98.00;;;;;;5071398;28;20522;-65
2022/07/19 03:13:22;;;;;;;4.20;2.97;;;17.20;98.00;;;;;;5054068;28;20459;-65
2022/07/19 03:15:49;;;;;;;4.27;2.40;;;17.10;98.00;;;;;;5071437;28;20492;-65
2022/07/19 03:18:17;;;;;;;3.83;2.03;;;17.10;98.00;;;;;;5074280;28;20510;-65
2022/07/19 03:20:44;;;;;;;3.67;2.37;;;17.00;98.00;;;;;;5074287;28;20444;-65
2022/07/19 03:23:15;;;;;;;2.60;2.30;;;16.90;98.00;;;;;;5074615;28;20452;-65
2022/07/19 03:25:42;;;;;;;2.73;2.20;;;17.10;98.00;;;;;;5074300;28;20453;-65
2022/07/19 03:28:09;;;;;;;4.97;2.70;;;17.00;98.00;;;;;;5074587;28;20457;-65
2022/07/19 03:30:36;;;;;;;3.83;2.13;;;17.00;98.00;;;;;;5074463;28;20456;-65
2022/07/19 03:33:04;;;;;;;3.63;2.47;;;16.90;98.00;;;;;;5074538;28;20795;-65
2022/07/19 03:35:31;;;;;;;3.20;2.07;;;17.00;98.00;;;;;;5056397;28;20473;-65
2022/07/19 03:37:58;;;;;;;3.10;2.07;;;17.00;98.00;;;;;;5074314;28;20464;-65
2022/07/19 03:40:26;;;;;;;2.27;1.60;;;17.00;98.00;;;;;;5074354;28;20955;-65
2022/07/19 03:42:53;;;;;;;2.43;1.97;;;16.90;98.00;;;;;;5074355;28;20460;-65
2022/07/19 03:45:21;;;;;;;2.57;2.10;;;16.90;98.00;;;;;;5074196;28;20813;-65
2022/07/19 03:47:48;;;;;;;3.40;2.60;;;16.80;98.00;;;;;;5074349;28;20457;-65
2022/07/19 03:50:15;;;;;;;3.70;2.20;;;16.70;98.00;;;;;;5074184;28;20457;-65
2022/07/19 03:52:42;;;;;;;2.03;1.93;;;16.60;98.00;;;;;;5074012;28;20471;-65
2022/07/19 03:55:10;;;;;;;1.83;1.83;;;16.70;98.00;;;;;;5074215;28;20818;-65
2022/07/19 03:57:38;;;;;;;3.20;2.07;;;16.70;98.00;;;;;;5073729;28;20460;-65
2022/07/19 04:00:07;;;;;;;2.53;2.00;;;16.80;98.00;;;;;;5074057;28;20460;-65
2022/07/19 04:02:34;;;;;;;3.83;2.57;;;16.80;98.00;;;;;;5056381;28;20456;-65
2022/07/19 04:05:02;;;;;;;3.40;2.17;;;16.80;98.00;;;;;;5073992;28;20456;-65
2022/07/19 04:07:29;;;;;;;2.73;1.93;;;16.90;98.00;;;;;;5073680;28;20461;-65
2022/07/19 04:09:56;;;;;;;3.90;2.20;;;16.90;98.00;;;;;;5073895;28;20510;-65
2022/07/19 04:12:23;;;;;;;2.43;2.00;;;16.70;98.00;;;;;;5074027;28;20456;-65
2022/07/19 04:14:51;;;;;;;3.93;2.00;;;16.90;98.00;;;;;;5056455;28;20461;-65
2022/07/19 04:17:20;;;;;;;2.97;1.73;;;16.90;98.00;;;;;;5073899;28;20481;-65
2022/07/19 04:19:47;;;;;;;2.83;2.00;;;17.00;98.00;;;;;;5073869;28;20467;-65
2022/07/19 04:22:14;;;;;;;3.77;2.93;;;16.80;98.00;;;;;;5073395;28;21027;-65
2022/07/19 04:24:41;;;;;;;3.17;2.10;;;16.70;98.00;;;;;;5073545;28;20449;-65
2022/07/19 04:27:09;;;;;;;4.53;2.30;;;16.70;98.00;;;;;;5073332;28;20456;-65
2022/07/19 04:29:36;;;;;;;3.10;2.37;;;16.60;98.00;;;;;;5072257;28;20453;-65
2022/07/19 04:32:05;;;;;;;3.80;1.60;;;16.60;98.00;;;;;;5073249;28;20456;-65
2022/07/19 04:34:32;;;;;;;2.17;1.80;;;16.60;98.00;;;;;;5073299;28;20480;-65
2022/07/19 04:36:59;;;;;;;3.07;2.03;;;16.60;98.00;;;;;;5073211;28;20511;-65
2022/07/19 04:39:27;;;;;;;2.77;2.07;;;16.60;98.00;;;;;;5073136;28;20951;-65
2022/07/19 04:41:54;;;;;;;3.20;1.90;;;16.70;98.00;;;;;;5055590;28;20456;-65
2022/07/19 04:44:21;;;;;;;3.63;1.97;;;16.80;98.00;;;;;;5073093;28;20461;-65
2022/07/19 04:46:48;;;;;;;2.13;1.57;;;17.00;98.00;;;;;;5073220;28;20460;-64
2022/07/19 04:49:18;;;;;;;2.73;2.03;;;17.00;98.00;;;;;;5072968;28;20500;-65
2022/07/19 04:51:45;;;;;;;2.77;1.90;;;17.00;98.00;;;;;;5073113;28;20518;-65
2022/07/19 04:54:12;;;;;;;3.47;1.87;;;17.00;98.00;;;;;;5072853;28;21010;-65
2022/07/19 04:56:39;;;;;;;4.90;2.17;;;17.10;98.00;;;;;;5072751;28;20477;-65
2022/07/19 04:59:06;;;;;;;4.10;2.57;;;17.10;98.00;;;;;;5072543;28;20457;-65
2022/07/19 05:01:34;;;;;;;3.10;2.40;;;17.20;98.00;;;;;;5072609;28;20522;-65
2022/07/19 05:04:01;;;;;;;3.77;2.30;;;17.10;98.00;;;;;;5072888;28;20437;-65
2022/07/19 05:06:30;;;;;;;4.03;2.23;;;17.20;98.00;;;;;;5072669;28;20464;-65
2022/07/19 05:08:57;;;;;;;9.37;2.50;;;17.30;98.00;;;;;;5072814;28;20445;-65
2022/07/19 05:11:24;;;;;;;4.00;2.33;;;17.50;98.00;;;;;;5072600;28;20813;-65
2022/07/19 05:13:51;;;;;;;3.13;2.00;;;17.60;98.00;;;;;;5072882;28;20449;-65
2022/07/19 05:16:19;;;;;;;2.50;2.00;;;17.60;98.00;;;;;;5072634;28;21059;-65
2022/07/19 05:18:46;;;;;;;4.77;2.00;;;17.80;98.00;;;;;;5073048;28;20453;-65
2022/07/19 05:21:13;;;;;;;3.67;2.47;;;17.70;98.00;;;;;;5054979;28;21004;-65
2022/07/19 05:23:43;;;;;;;3.27;2.30;;;17.70;98.00;;;;;;5072222;28;20465;-65
2022/07/19 05:26:10;;;;;;;3.40;2.43;;;17.70;98.00;;;;;;5072376;28;20448;-65
2022/07/19 05:28:37;;;;;;;3.30;2.17;;;17.70;98.00;;;;;;5072165;28;20465;-65
2022/07/19 05:31:05;;;;;;;2.77;1.80;;;17.70;98.00;;;;;;5072332;28;20480;-65
2022/07/19 05:33:33;;;;;;;3.93;2.53;;;17.80;98.00;;;;;;5072266;28;20491;-65
2022/07/19 05:36:01;;;;;;;3.20;2.23;;;17.80;98.00;;;;;;5072108;28;20481;-65
2022/07/19 05:38:34;;;;;;;3.07;2.00;;;17.90;98.00;;;;;;5072435;28;20449;-65
2022/07/19 05:41:04;;;;;;;4.27;2.53;;;18.00;98.00;;;;;;5072026;28;20539;-65
2022/07/19 05:43:32;;;;;;;3.13;2.50;;;18.10;98.00;;;;;;5072394;28;20831;-65
2022/07/19 05:46:00;;;;;;;3.90;2.40;;;18.20;98.00;;;;;;5072332;28;20506;-65
2022/07/19 05:48:28;;;;;;;3.87;2.40;;;18.40;98.00;;;;;;5071948;28;20441;-65
2022/07/19 05:50:56;;;;;;;3.87;2.40;;;18.60;98.00;;;;;;5072157;28;20449;-65
2022/07/19 05:53:23;;;;;;;4.80;2.60;;;18.70;98.00;;;;;;5071843;28;20475;-65
2022/07/19 05:55:50;;;;;;;4.30;2.70;;;18.80;98.00;;;;;;5054181;28;20543;-65
2022/07/19 05:58:18;;;;;;;3.47;2.23;;;18.90;98.00;;;;;;5071736;28;20481;-65
2022/07/19 06:03:26;;;;;;;5.70;2.60;;;19.30;98.00;;;;;;5070804;28;20463;-65
2022/07/19 06:05:53;;;;;;;7.20;3.67;;;19.40;98.00;;;;;;5071679;28;20461;-65
2022/07/19 06:08:20;;;;;;;4.67;2.60;;;19.40;98.00;;;;;;5071594;28;20459;-65
2022/07/19 06:10:47;;;;;;;3.87;2.57;;;19.50;98.00;;;;;;5071843;28;20466;-65
2022/07/19 06:13:15;;;;;;;4.53;2.63;;;19.60;98.00;;;;;;5071840;28;20456;-65
2022/07/19 06:15:45;;;;;;;4.50;2.60;;;19.70;98.00;;;;;;5071842;28;20551;-65
2022/07/19 06:18:12;;;;;;;4.43;3.00;;;19.90;98.00;;;;;;5071947;28;20497;-65
2022/07/19 06:20:39;;;;;;;4.23;2.57;;;20.10;98.00;;;;;;5071770;28;20457;-65
2022/07/19 06:23:06;;;;;;;4.53;2.57;;;20.20;98.00;;;;;;5054292;28;20459;-65
2022/07/19 06:25:37;;;;;;;5.17;2.80;;;20.30;98.00;;;;;;5053782;28;20457;-65
2022/07/19 06:28:04;;;;;;;3.40;2.57;;;20.40;98.00;;;;;;5071720;28;20460;-64
2022/07/19 06:30:32;;;;;;;4.80;3.37;;;20.60;98.00;;;;;;5071313;28;20963;-64
2022/07/19 06:33:01;;;;;;;7.30;3.47;;;20.70;98.00;;;;;;5071662;28;20465;-65
2022/07/19 06:35:28;;;;;;;4.03;2.70;;;20.70;98.00;;;;;;5071437;28;20456;-61
2022/07/19 06:37:55;;;;;;;4.50;3.00;;;20.80;98.00;;;;;;5071260;28;20520;-62
2022/07/19 06:40:22;;;;;;;11.80;2.80;;;20.90;98.00;;;;;;5071532;28;20461;-62
2022/07/19 06:42:50;;;;;;;4.97;2.80;;;21.00;98.00;;;;;;5071719;28;20453;-65
2022/07/19 06:45:17;;;;;;;3.13;2.47;;;21.30;98.00;;;;;;5071349;28;20492;-65
2022/07/19 06:47:44;;;;;;;3.93;2.60;;;21.60;98.00;;;;;;5071324;28;20460;-65
2022/07/19 06:50:13;;;;;;;4.10;2.53;;;21.90;98.00;;;;;;5071538;28;20449;-65
2022/07/19 06:52:40;;;;;;;3.40;2.33;;;22.20;98.00;;;;;;5073542;28;20469;-65
2022/07/19 06:55:08;;;;;;;5.30;2.80;;;22.50;98.00;;;;;;5075329;28;20464;-65
2022/07/19 06:57:35;;;;;;;4.30;2.63;;;22.70;97.80;;;;;;5074719;28;20557;-65
2022/07/19 07:00:03;;;;;;;4.10;2.57;;;23.00;97.10;;;;;;5075235;28;21082;-65
2022/07/19 07:02:30;;;;;;;5.03;2.90;;;23.20;96.50;;;;;;5075058;28;20453;-65
2022/07/19 07:04:58;;;;;;;3.70;2.70;;;23.40;96.70;;;;;;5075347;28;20449;-65
2022/07/19 07:07:27;;;;;;;5.67;2.40;;;23.50;95.60;;;;;;5075140;28;20463;-65
2022/07/19 07:09:54;;;;;;;3.90;2.60;;;23.70;95.20;;;;;;5057312;28;20518;-65
2022/07/19 07:12:22;;;;;;;6.27;2.83;;;23.80;94.90;;;;;;5074862;28;20510;-65
2022/07/19 07:14:49;;;;;;;6.20;2.80;;;23.90;94.60;;;;;;5075120;28;20452;-65
2022/07/19 07:17:17;;;;;;;4.40;2.90;;;24.00;94.20;;;;;;5074765;28;20476;-65
2022/07/19 07:19:44;;;;;;;4.23;2.83;;;24.10;94.00;;;;;;5075145;28;20452;-66
2022/07/19 07:22:13;;;;;;;5.13;3.20;;;24.20;93.80;;;;;;5074656;28;20457;-66
2022/07/19 07:24:42;;;;;;;5.70;3.47;;;24.30;94.40;;;;;;5057220;28;20491;-65
2022/07/19 07:27:09;;;;;;;4.73;2.70;;;24.40;93.20;;;;;;5074407;28;20491;-66
2022/07/19 07:29:36;;;;;;;8.43;3.30;;;24.50;93.30;;;;;;5074494;28;20460;-66
2022/07/19 07:32:04;;;;;;;4.07;2.90;;;24.60;92.80;;;;;;5074084;28;20477;-66
2022/07/19 07:34:31;;;;;;;5.47;3.40;;;24.70;92.50;;;;;;5074593;28;20856;-66
2022/07/19 07:36:58;;;;;;;3.80;2.60;;;24.90;93.00;;;;;;5074320;28;20487;-66
2022/07/19 07:39:26;;;;;;;4.30;2.70;;;25.00;92.00;;;;;;5070330;28;20448;-65
2022/07/19 07:41:55;;;;;;;3.97;2.80;;;25.10;91.30;;;;;;5054058;28;20457;-66
2022/07/19 07:44:22;;;;;;;5.50;3.33;;;25.20;90.80;;;;;;5070962;28;20457;-65
2022/07/19 07:46:49;;;;;;;3.97;2.47;;;25.40;90.90;;;;;;5071170;28;20464;-66
2022/07/19 07:49:17;;;;;;;4.00;2.40;;;25.40;91.00;;;;;;5069207;28;20465;-66
2022/07/19 07:51:44;;;;;;;4.17;2.33;;;25.50;90.60;;;;;;5053091;28;20458;-66
2022/07/19 07:54:11;;;;;;;4.23;2.87;;;25.80;87.30;;;;;;5071271;28;20460;-67
2022/07/19 07:56:38;;;;;;;4.53;2.73;;;26.00;86.60;;;;;;5053485;28;20485;-65
2022/07/19 07:59:07;;;;;;;4.00;2.73;;;26.30;83.80;;;;;;5071297;28;21152;-65
2022/07/19 08:01:34;;;;;;;3.60;2.37;;;26.60;82.00;;;;;;5071300;28;20460;-65
2022/07/19 08:04:01;;;;;;;7.30;2.30;;;26.80;80.60;;;;;;5071036;28;20931;-65
2022/07/19 08:06:28;;;;;;;3.70;2.07;;;27.10;77.50;;;;;;5071005;28;20502;-65
2022/07/19 08:08:55;;;;;;;4.17;2.60;;;27.30;78.80;;;;;;5071254;28;20448;-65
2022/07/19 08:11:23;;;;;;;3.60;2.40;;;27.50;79.10;;;;;;5071169;28;20453;-61
2022/07/19 08:13:50;;;;;;;3.20;2.43;;;27.60;78.70;;;;;;5053437;28;20926;-61
2022/07/19 08:16:18;;;;;;;3.27;2.47;;;27.80;77.20;;;;;;5071020;28;20464;-61
2022/07/19 08:18:45;;;;;;;3.07;2.27;;;28.00;77.10;;;;;;5071033;28;21132;-61
2022/07/19 08:21:12;;;;;;;2.70;2.20;;;28.10;75.40;;;;;;5052929;28;20963;-61
2022/07/19 08:23:41;;;;;;;2.30;1.93;;;28.30;72.90;;;;;;5071037;28;20483;-63
2022/07/19 08:26:08;;;;;;;2.87;1.97;;;28.50;73.80;;;;;;5070831;28;20497;-61
2022/07/19 08:28:36;;;;;;;4.03;2.30;;;28.70;70.80;;;;;;5070773;28;20453;-61
2022/07/19 08:31:03;;;;;;;5.00;2.67;;;28.90;70.40;;;;;;5070636;28;20457;-61
2022/07/19 08:33:31;;;;;;;3.30;2.10;;;29.10;71.40;;;;;;5070595;28;20951;-61
2022/07/19 08:35:58;;;;;;;2.57;2.10;;;29.20;68.90;;;;;;5070618;28;20850;-61
2022/07/19 08:38:25;;;;;;;3.70;2.30;;;29.50;68.00;;;;;;5070314;28;20497;-61
2022/07/19 08:40:53;;;;;;;3.47;2.43;;;29.60;67.60;;;;;;5070481;28;20464;-61
2022/07/19 08:43:22;;;;;;;2.80;2.17;;;29.70;66.60;;;;;;5070309;28;20457;-61
2022/07/19 08:45:50;;;;;;;2.93;2.20;;;29.80;66.50;;;;;;5070291;28;20465;-61
2022/07/19 08:48:20;;;;;;;2.77;2.00;;;29.90;66.20;;;;;;5070114;28;20464;-61
2022/07/19 08:50:51;;;;;;;4.17;2.33;;;30.10;66.00;;;;;;5034190;28;20885;-61
2022/07/19 08:53:19;;;;;;;4.73;2.60;;;30.20;65.20;;;;;;5070091;28;21016;-61
2022/07/19 08:55:46;;;;;;;2.90;2.23;;;30.30;63.90;;;;;;5070164;28;20476;-61
2022/07/19 08:58:12;;;;;;;3.33;2.20;;;30.40;64.40;;;;;;5069731;28;20497;-61
2022/07/19 09:00:39;;;;;;;3.37;2.60;;;30.50;64.40;;;;;;5069980;28;20461;-62
2022/07/19 09:03:08;;;;;;;2.40;2.00;;;30.70;63.30;;;;;;5069981;28;20453;-64
2022/07/19 09:05:36;;;;;;;3.27;2.43;;;30.80;62.60;;;;;;5070109;28;20465;-63
2022/07/19 09:08:07;;;;;;;2.77;2.13;;;30.90;62.80;;;;;;5070021;28;21056;-64
2022/07/19 09:10:35;;;;;;;2.50;2.00;;;31.00;62.60;;;;;;5052071;28;20920;-63
2022/07/19 09:13:07;;;;;;;7.73;2.30;;;31.10;61.90;;;;;;5069844;28;20461;-63
2022/07/19 09:15:43;;;;;;;2.87;2.20;;;31.20;61.50;;;;;;5069327;28;20457;-63
2022/07/19 09:18:11;;;;;;;3.10;2.03;;;31.30;61.30;;;;;;5069837;28;20579;-63
2022/07/19 09:20:39;;;;;;;4.63;2.40;;;31.40;60.80;;;;;;5069861;28;20461;-64
2022/07/19 09:23:08;;;;;;;2.77;2.00;;;31.50;60.60;;;;;;5069894;28;20461;-64
2022/07/19 09:25:37;;;;;;;3.30;2.40;;;31.60;60.60;;;;;;5069661;28;20475;-64
2022/07/19 09:28:04;;;;;;;2.97;2.00;;;31.60;60.70;;;;;;5069635;28;20464;-64
2022/07/19 09:30:40;;;;;;;3.50;2.30;;;31.70;61.70;;;;;;5069507;28;20461;-64
2022/07/19 09:33:16;;;;;;;4.43;2.37;;;31.90;60.20;;;;;;5069468;28;20461;-64
2022/07/19 09:35:46;;;;;;;2.70;2.13;;;32.00;60.20;;;;;;5069518;28;20459;-64
2022/07/19 09:38:26;;;;;;;6.53;2.53;;;32.10;61.30;;;;;;5069250;28;20497;-64
2022/07/19 09:40:55;;;;;;;4.50;2.73;;;32.20;60.10;;;;;;5069372;28;20453;-64
2022/07/19 09:43:25;;;;;;;3.03;2.20;;;32.30;60.40;;;;;;5069597;28;20464;-64
2022/07/19 09:45:53;;;;;;;2.60;2.23;;;32.40;59.00;;;;;;5069317;28;20461;-63
2022/07/19 09:48:20;;;;;;;2.63;2.10;;;32.50;59.30;;;;;;5069116;28;20465;-64
2022/07/19 09:50:50;;;;;;;2.10;1.90;;;32.60;58.40;;;;;;5066799;28;20453;-64
2022/07/19 09:53:19;;;;;;;3.10;2.30;;;32.70;59.20;;;;;;5069183;28;20464;-64
2022/07/19 09:55:48;;;;;;;2.83;2.20;;;32.70;58.60;;;;;;5069381;28;20456;-64
2022/07/19 09:58:17;;;;;;;3.83;2.43;;;32.90;57.00;;;;;;5068889;28;20585;-64
2022/07/19 10:00:46;;;;;;;3.63;2.50;;;33.00;57.50;;;;;;5051534;28;20460;-65
2022/07/19 10:03:16;;;;;;;3.70;2.37;;;33.10;57.30;;;;;;5069142;28;20509;-71
2022/07/19 10:05:43;;;;;;;4.57;2.20;;;33.20;57.00;;;;;;5069212;28;20453;-65
2022/07/19 10:08:11;;;;;;;3.53;2.40;;;33.30;57.40;;;;;;5069226;28;20459;-65
2022/07/19 10:10:38;;;;;;;2.50;2.00;;;33.40;57.80;;;;;;5069276;28;20492;-65
2022/07/19 10:13:07;;;;;;;3.93;2.50;;;33.50;58.80;;;;;;5069118;28;20457;-65
2022/07/19 10:15:43;;;;;;;3.70;2.27;;;33.60;59.10;;;;;;5069173;28;20452;-66
2022/07/19 10:18:12;;;;;;;3.10;2.60;;;33.80;56.90;;;;;;5069061;28;20483;-65
2022/07/19 10:20:43;;;;;;;3.33;2.60;;;33.90;58.70;;;;;;5060949;28;20545;-65
2022/07/19 10:23:10;;;;;;;3.10;2.30;;;34.00;57.60;;;;;;5069303;28;20461;-65
2022/07/19 10:25:43;;;;;;;5.50;3.43;;;34.00;57.10;;;;;;5069929;28;20453;-65
2022/07/19 10:28:32;;;;;;;4.70;3.07;;;34.10;56.50;;;;;;5073085;28;20973;-64
2022/07/19 10:31:00;;;;;;;3.70;2.50;;;34.00;56.30;;;;;;5072562;28;20964;-65
2022/07/19 10:33:33;;;;;;;3.53;2.50;;;34.10;56.80;;;;;;5073054;28;20506;-64
2022/07/19 10:36:34;;;;;;;3.00;2.30;;;34.30;56.40;;;;;;5072874;28;20950;-64
2022/07/19 10:39:21;;;;;;;3.27;2.30;;;34.40;55.30;;;;;;5073192;28;20493;-64
2022/07/19 10:42:11;;;;;;;4.20;2.33;;;34.50;56.00;;;;;;5065390;28;20453;-65
2022/07/19 10:45:16;;;;;;;4.20;2.40;;;34.60;57.30;;;;;;5072753;28;21033;-65
2022/07/19 10:48:10;;;;;;;2.80;2.43;;;34.70;56.30;;;;;;5048176;28;20484;-65
2022/07/19 10:50:58;;;;;;;2.43;2.00;;;35.00;54.70;;;;;;5070660;28;20831;-65
2022/07/19 10:54:06;;;;;;;2.63;2.10;;;35.00;54.30;;;;;;5066976;28;20549;-65
2022/07/19 10:56:42;;;;;;;3.57;2.47;;;35.20;54.40;;;;;;5064522;28;20513;-65
2022/07/19 10:59:11;;;;;;;3.33;2.27;;;35.30;56.00;;;;;;5072261;28;20579;-65
2022/07/19 11:01:54;;;;;;;3.50;2.60;;;35.30;54.80;;;;;;5072129;28;21090;-64
2022/07/19 11:04:31;;;;;;;3.53;2.33;;;35.30;54.90;;;;;;5072402;28;20504;-64
2022/07/19 11:07:31;;;;;;;2.87;2.33;;;35.40;55.00;;;;;;5072535;28;20467;-64
2022/07/19 11:10:02;;;;;;;2.40;2.00;;;35.50;54.50;;;;;;5072676;28;20453;-66
2022/07/19 11:12:35;;;;;;;3.17;2.20;;;35.60;56.20;;;;;;5072712;28;20556;-65
2022/07/19 11:15:05;;;;;;;3.00;2.63;;;35.80;55.30;;;;;;5063969;28;20463;-65
2022/07/19 11:17:32;;;;;;;3.20;2.00;;;35.90;53.40;;;;;;5071311;28;20465;-66
2022/07/19 11:20:10;;;;;;;3.57;2.63;;;36.00;53.40;;;;;;5072596;28;20464;-65
2022/07/19 11:22:42;;;;;;;2.50;2.00;;;35.90;53.00;;;;;;5073941;28;20549;-64
2022/07/19 11:25:12;;;;;;;3.90;2.70;;;35.90;53.40;;;;;;5074042;28;20969;-63
2022/07/19 11:27:42;;;;;;;3.33;2.50;;;36.10;53.30;;;;;;5073958;28;20464;-66
2022/07/19 11:30:11;;;;;;;2.77;2.17;;;36.20;52.60;;;;;;5074129;28;20523;-66
2022/07/19 11:32:41;;;;;;;2.67;2.13;;;36.20;54.10;;;;;;5073987;28;20953;-64
2022/07/19 11:35:11;;;;;;;2.97;2.30;;;36.30;52.80;;;;;;5074058;28;20508;-65
2022/07/19 11:37:40;;;;;;;2.43;2.10;;;36.40;52.60;;;;;;5072907;28;20461;-65
2022/07/19 11:40:09;;;;;;;2.60;2.00;;;36.60;53.90;;;;;;5073868;28;20461;-65
2022/07/19 11:42:39;;;;;;;3.90;2.33;;;36.60;52.60;;;;;;5073610;28;20456;-63
2022/07/19 11:45:11;;;;;;;3.03;2.30;;;36.60;52.20;;;;;;5073636;28;20456;-63
2022/07/19 11:47:41;;;;;;;2.13;2.00;;;36.70;52.80;;;;;;5073423;28;20461;-66
2022/07/19 11:50:12;;;;;;;3.77;2.40;;;37.00;53.30;;;;;;5073589;28;20453;-66
2022/07/19 11:52:44;;;;;;;3.77;2.57;;;37.00;52.20;;;;;;5073416;28;20457;-64
2022/07/19 11:55:11;;;;;;;6.97;2.30;;;37.00;52.70;;;;;;5073517;28;20809;-64
2022/07/19 11:57:39;;;;;;;3.47;2.40;;;37.10;52.80;;;;;;5055022;28;20468;-64
2022/07/19 12:00:11;;;;;;;2.70;2.13;;;37.30;52.20;;;;;;5073375;28;20463;-64
2022/07/19 12:02:57;;;;;;;3.13;2.43;;;37.40;51.30;;;;;;5073155;28;21004;-64
2022/07/19 12:05:26;;;;;;;3.23;2.30;;;37.40;52.10;;;;;;5073284;28;20548;-63
2022/07/19 12:07:56;;;;;;;3.10;2.37;;;37.50;52.30;;;;;;5073075;28;20476;-63
2022/07/19 12:10:37;;;;;;;3.47;2.80;;;37.60;51.10;;;;;;5073128;28;20851;-64
2022/07/19 12:13:07;;;;;;;3.87;2.50;;;37.60;51.90;;;;;;5055558;28;20467;-63
2022/07/19 12:15:47;;;;;;;3.17;2.60;;;37.60;52.00;;;;;;5073018;28;20876;-65
2022/07/19 12:18:14;;;;;;;3.73;2.70;;;37.80;52.30;;;;;;5072054;28;20534;-64
2022/07/19 12:20:43;;;;;;;3.40;2.47;;;37.90;51.30;;;;;;5073016;28;20464;-64
2022/07/19 12:23:14;;;;;;;3.90;2.57;;;37.80;52.00;;;;;;5073040;28;20452;-63
2022/07/19 12:25:41;;;;;;;3.00;2.60;;;37.90;52.60;;;;;;5072632;28;20460;-65
2022/07/19 12:28:09;;;;;;;3.50;2.60;;;38.00;50.40;;;;;;5072853;28;20539;-63
2022/07/19 12:30:37;;;;;;;3.60;2.60;;;38.10;51.90;;;;;;5072932;28;20810;-63
2022/07/19 12:33:09;;;;;;;4.00;2.57;;;38.20;53.20;;;;;;5072976;28;20497;-63
2022/07/19 12:35:45;;;;;;;3.20;2.53;;;38.40;51.10;;;;;;5072737;28;20457;-64
2022/07/19 12:38:13;;;;;;;3.70;2.60;;;38.40;51.80;;;;;;5072529;28;20480;-63
2022/07/19 12:40:42;;;;;;;3.70;2.90;;;38.50;51.70;;;;;;5072565;28;20532;-62
2022/07/19 12:43:12;;;;;;;3.03;2.50;;;38.70;50.20;;;;;;5072372;28;20466;-62
2022/07/19 12:45:43;;;;;;;2.73;2.30;;;38.80;48.80;;;;;;5072391;28;20468;-63
2022/07/19 12:48:12;;;;;;;3.10;2.20;;;39.10;50.20;;;;;;5072262;28;20487;-63
2022/07/19 12:50:44;;;;;;;2.97;2.40;;;39.10;47.90;;;;;;5071316;28;20468;-63
2022/07/19 12:53:14;;;;;;;3.20;2.40;;;39.20;49.50;;;;;;5054691;28;20457;-62
2022/07/19 12:55:44;;;;;;;2.57;2.37;;;39.20;49.10;;;;;;5072128;28;20946;-63
2022/07/19 12:58:13;;;;;;;6.23;2.73;;;39.20;48.80;;;;;;5072626;28;20809;-63
2022/07/19 13:00:41;;;;;;;3.67;2.50;;;39.00;49.60;;;;;;5072944;28;20453;-62
2022/07/19 13:03:09;;;;;;;3.27;2.40;;;39.20;49.60;;;;;;5072754;28;20862;-62